TAF and METAR

Could not understand the following METAR

YPBO 020200Z AUTO 03017KT 9999 // NCD 37/10 Q1012
No TAF available for Paraburdoo Airport
Paraburdoo Airport in Australia at 1292m

Latest 5 airports